LTFG

Gazipasa Airport

Alanya, Turkey
TAF LTFG 172240Z 1800/1809 VRB02KT CAVOK
Issued Valid From Valid To
Jan-17 @ 22:40 UTC
(an hour ago)
Jan-18 @ 00:00 UTC
(5 minutes ago)
Jan-18 @ 09:00 UTC
(in 9 hours)
Jan-18 @ 00:00 to Jan-18 @ 09:00
TAF LTFG 172240Z 1800/1809 VRB02KT CAVOK
Wind Visibility Clouds Conditions
Variable at 2 knots 10,000+ meters
  • No significant clouds
TAF LTFG 172240Z 1800/1809 VRB02KT CAVOK
Issued Jan-17 @ 22:40 UTC
(an hour ago)
Valid From Jan-18 @ 00:00 UTC
(5 minutes ago)
Valid To Jan-18 @ 09:00 UTC
(in 9 hours)
Jan-18 @ 00:00 - Jan-18 @ 09:00
Wind Visibility
Variable at 2 knots 10,000+ meters
Clouds
  • No significant clouds
Conditions